createdAt,value
2022-11-12T00:00:12.381Z,18.66
2022-11-12T00:02:40.622Z,18.61
2022-11-12T00:05:09.648Z,18.66
2022-11-12T00:07:37.889Z,18.65
2022-11-12T00:10:07.394Z,18.64
2022-11-12T00:12:37.427Z,18.61
2022-11-12T00:15:06.920Z,18.66
2022-11-12T00:17:36.679Z,18.68
2022-11-12T00:20:06.357Z,18.66
2022-11-12T00:22:35.067Z,18.65
2022-11-12T00:25:04.854Z,18.70
2022-11-12T00:27:35.574Z,18.69
2022-11-12T00:30:14.335Z,18.69
2022-11-12T00:32:46.222Z,18.68
2022-11-12T00:35:20.229Z,18.70
2022-11-12T00:37:56.302Z,18.70
2022-11-12T00:40:34.464Z,18.67
2022-11-12T00:43:03.741Z,18.69
2022-11-12T00:45:39.625Z,18.65
2022-11-12T00:48:14.029Z,18.67
2022-11-12T00:50:48.325Z,18.67
2022-11-12T00:53:18.552Z,18.69
2022-11-12T00:55:50.784Z,18.66
2022-11-12T00:58:19.490Z,18.62
2022-11-12T01:00:52.164Z,18.65
2022-11-12T01:03:23.090Z,18.67
2022-11-12T01:05:54.435Z,18.65
2022-11-12T01:08:24.657Z,18.69
2022-11-12T01:13:50.211Z,18.69
2022-11-12T01:16:22.294Z,18.65
2022-11-12T01:18:56.804Z,18.64
2022-11-12T01:21:27.189Z,18.63
2022-11-12T01:24:04.429Z,18.62
2022-11-12T01:26:35.190Z,18.58
2022-11-12T01:29:35.087Z,18.57
2022-11-12T01:32:04.660Z,18.53
2022-11-12T01:34:35.284Z,18.51
2022-11-12T01:37:06.531Z,18.46
2022-11-12T01:39:34.810Z,18.37
2022-11-12T01:42:06.249Z,18.34
2022-11-12T01:44:37.299Z,18.28
2022-11-12T01:47:13.146Z,18.28
2022-11-12T01:49:53.193Z,18.23
2022-11-12T01:52:28.653Z,18.16
2022-11-12T01:55:02.435Z,18.13
2022-11-12T01:57:35.266Z,18.07
2022-11-12T02:00:10.574Z,18.00
2022-11-12T02:02:39.873Z,17.92
2022-11-12T02:05:12.042Z,17.81
2022-11-12T02:07:43.182Z,17.68
2022-11-12T02:10:11.771Z,17.59
2022-11-12T02:12:57.634Z,17.49
2022-11-12T02:15:27.162Z,17.37
2022-11-12T02:17:56.304Z,17.31
2022-11-12T02:20:27.850Z,17.21
2022-11-12T02:23:07.050Z,17.13
2022-11-12T02:25:42.432Z,17.08
2022-11-12T02:28:17.672Z,16.97
2022-11-12T02:30:55.062Z,16.93
2022-11-12T02:33:38.047Z,16.86
2022-11-12T02:36:10.100Z,16.81
2022-11-12T02:38:40.016Z,16.76
2022-11-12T02:41:08.399Z,16.69
2022-11-12T02:43:37.382Z,16.66
2022-11-12T02:46:06.687Z,16.63
2022-11-12T02:48:36.294Z,16.59
2022-11-12T02:51:07.800Z,16.57
2022-11-12T02:53:36.625Z,16.59
2022-11-12T02:56:08.575Z,16.56
2022-11-12T02:58:37.733Z,16.54
2022-11-12T03:01:06.759Z,16.51
2022-11-12T03:03:38.566Z,16.51
2022-11-12T03:06:14.916Z,16.46
2022-11-12T03:08:45.325Z,16.45
2022-11-12T03:11:18.213Z,16.42
2022-11-12T03:13:48.474Z,16.40
2022-11-12T03:16:17.012Z,16.37
2022-11-12T03:18:45.418Z,16.35
2022-11-12T03:21:14.382Z,16.34
2022-11-12T03:23:47.694Z,16.31
2022-11-12T03:26:17.485Z,16.30
2022-11-12T03:28:46.516Z,16.29
2022-11-12T03:31:15.507Z,16.23
2022-11-12T03:34:14.779Z,16.24
2022-11-12T03:36:46.579Z,16.18
2022-11-12T03:39:18.544Z,16.14
2022-11-12T03:42:19.554Z,16.14
2022-11-12T03:44:48.166Z,16.12
2022-11-12T03:47:17.424Z,16.09
2022-11-12T03:49:45.600Z,16.09
2022-11-12T03:52:13.913Z,16.07
2022-11-12T03:54:42.260Z,16.04
2022-11-12T03:57:12.374Z,16.02
2022-11-12T03:59:40.893Z,16.02
2022-11-12T04:02:14.649Z,15.97
2022-11-12T04:05:00.464Z,15.98
2022-11-12T04:07:49.349Z,15.92
2022-11-12T04:10:18.012Z,15.87
2022-11-12T04:13:05.564Z,15.86
2022-11-12T04:15:34.122Z,15.83
2022-11-12T04:18:20.095Z,15.82
2022-11-12T04:21:09.710Z,15.83
2022-11-12T04:23:37.957Z,15.81
2022-11-12T04:26:23.626Z,15.84
2022-11-12T04:29:10.698Z,15.82
2022-11-12T04:31:39.119Z,15.86
2022-11-12T04:34:21.276Z,15.92
2022-11-12T04:36:58.215Z,16.00
2022-11-12T04:39:26.882Z,16.07
2022-11-12T04:42:12.639Z,16.10
2022-11-12T04:45:01.532Z,16.14
2022-11-12T04:47:38.639Z,16.16
2022-11-12T04:50:10.886Z,16.21
2022-11-12T04:52:40.486Z,16.30
2022-11-12T04:55:14.119Z,16.34
2022-11-12T04:57:42.278Z,16.36
2022-11-12T05:00:15.348Z,16.41
2022-11-12T05:02:53.246Z,16.43
2022-11-12T05:05:31.088Z,16.48
2022-11-12T05:08:02.430Z,16.48
2022-11-12T05:10:32.013Z,16.51
2022-11-12T05:15:59.108Z,16.45
2022-11-12T05:18:27.711Z,16.43
2022-11-12T05:23:43.267Z,16.29
2022-11-12T05:26:11.424Z,16.19
2022-11-12T05:28:39.736Z,16.12
2022-11-12T05:31:31.964Z,16.04
2022-11-12T05:34:01.748Z,15.97
2022-11-12T05:36:30.152Z,15.92
2022-11-12T05:39:00.194Z,15.89
2022-11-12T05:41:45.006Z,15.85
2022-11-12T05:44:22.811Z,15.81
2022-11-12T05:46:54.062Z,15.82
2022-11-12T05:49:22.813Z,15.82
2022-11-12T05:51:51.588Z,15.80
2022-11-12T05:54:20.321Z,15.79
2022-11-12T05:56:50.577Z,15.76
2022-11-12T05:59:18.628Z,15.77
2022-11-12T06:01:47.026Z,15.74
2022-11-12T06:04:17.550Z,15.70
2022-11-12T06:06:46.222Z,15.67
2022-11-12T06:09:16.851Z,15.60
2022-11-12T06:11:44.896Z,15.54
2022-11-12T06:14:13.292Z,15.52
2022-11-12T06:16:41.780Z,15.50
2022-11-12T06:19:10.245Z,15.46
2022-11-12T06:21:40.413Z,15.45
2022-11-12T06:24:09.271Z,15.41
2022-11-12T06:26:38.187Z,15.41
2022-11-12T06:29:07.042Z,15.39
2022-11-12T06:31:42.113Z,15.37
2022-11-12T06:34:12.590Z,15.38
2022-11-12T06:36:42.656Z,15.38
2022-11-12T06:39:12.708Z,15.37
2022-11-12T06:41:44.089Z,15.39
2022-11-12T06:44:14.686Z,15.38
2022-11-12T06:46:47.316Z,15.38
2022-11-12T06:49:19.465Z,15.40
2022-11-12T06:54:38.607Z,15.43
2022-11-12T06:57:16.075Z,15.45
2022-11-12T07:02:48.781Z,15.45
2022-11-12T07:05:17.478Z,15.44
2022-11-12T07:07:49.057Z,15.44
2022-11-12T07:10:17.643Z,15.48
2022-11-12T07:12:56.012Z,15.48
2022-11-12T07:15:43.947Z,15.47
2022-11-12T07:21:20.299Z,15.48
2022-11-12T07:26:31.804Z,15.52
2022-11-12T07:29:00.400Z,15.53
2022-11-12T07:31:39.241Z,15.55
2022-11-12T07:34:14.845Z,15.56
2022-11-12T07:36:43.277Z,15.60
2022-11-12T07:39:13.393Z,15.58
2022-11-12T07:41:42.879Z,15.64
2022-11-12T07:44:11.006Z,15.66
2022-11-12T07:46:39.120Z,15.70
2022-11-12T07:49:07.215Z,15.72
2022-11-12T07:51:35.511Z,15.75
2022-11-12T07:54:04.376Z,15.76
2022-11-12T07:56:32.600Z,15.81
2022-11-12T07:59:02.400Z,15.83
2022-11-12T08:01:32.398Z,15.84
2022-11-12T08:04:01.222Z,15.88
2022-11-12T08:06:30.409Z,15.89
2022-11-12T08:08:59.909Z,15.95
2022-11-12T08:11:28.294Z,15.95
2022-11-12T08:13:56.630Z,16.00
2022-11-12T08:16:26.891Z,16.04
2022-11-12T08:18:56.903Z,16.12
2022-11-12T08:21:25.723Z,16.14
2022-11-12T08:23:54.205Z,16.20
2022-11-12T08:26:23.372Z,16.25
2022-11-12T08:28:51.658Z,16.31
2022-11-12T08:31:22.401Z,16.37
2022-11-12T08:33:52.191Z,16.41
2022-11-12T08:36:20.675Z,16.48
2022-11-12T08:38:48.982Z,16.53
2022-11-12T08:41:23.272Z,16.58
2022-11-12T08:43:54.336Z,16.69
2022-11-12T08:46:26.695Z,16.76
2022-11-12T08:48:56.647Z,16.83
2022-11-12T08:54:08.054Z,16.96
2022-11-12T08:56:37.433Z,17.06
2022-11-12T08:59:07.702Z,17.11
2022-11-12T09:01:36.372Z,17.17
2022-11-12T09:04:09.323Z,17.24
2022-11-12T09:06:43.150Z,17.36
2022-11-12T09:09:14.002Z,17.40
2022-11-12T09:11:45.668Z,17.49
2022-11-12T09:14:14.357Z,17.57
2022-11-12T09:16:49.672Z,17.63
2022-11-12T09:19:25.591Z,17.68
2022-11-12T09:22:04.701Z,17.77
2022-11-12T09:24:42.095Z,17.79
2022-11-12T09:27:15.322Z,17.84
2022-11-12T09:29:44.682Z,17.92
2022-11-12T09:32:16.010Z,17.94
2022-11-12T09:34:46.378Z,17.99
2022-11-12T09:37:28.669Z,18.01
2022-11-12T09:39:57.469Z,18.03
2022-11-12T09:42:30.847Z,18.09
2022-11-12T09:45:05.733Z,18.09
2022-11-12T09:47:39.688Z,18.10
2022-11-12T09:50:28.355Z,18.19
2022-11-12T09:53:04.006Z,18.24
2022-11-12T09:55:40.057Z,18.31
2022-11-12T09:58:19.854Z,18.34
2022-11-12T10:00:59.018Z,18.43
2022-11-12T10:03:39.480Z,18.45
2022-11-12T10:06:19.495Z,18.54
2022-11-12T10:09:20.785Z,18.61
2022-11-12T10:16:00.045Z,18.67
2022-11-12T10:18:52.513Z,18.73
2022-11-12T10:21:42.368Z,18.76
2022-11-12T10:24:15.350Z,18.87
2022-11-12T10:26:44.403Z,18.88
2022-11-12T10:29:24.231Z,18.93
2022-11-12T10:31:52.783Z,19.01
2022-11-12T10:34:46.481Z,19.01
2022-11-12T10:37:42.020Z,19.10
2022-11-12T10:40:36.249Z,19.14
2022-11-12T10:43:13.736Z,19.16
2022-11-12T10:45:45.420Z,19.24
2022-11-12T10:48:27.359Z,19.32
2022-11-12T10:50:56.574Z,19.39
2022-11-12T10:53:36.674Z,19.44
2022-11-12T10:56:22.604Z,19.48
2022-11-12T10:59:12.773Z,19.54
2022-11-12T11:01:45.490Z,19.55
2022-11-12T11:04:24.054Z,19.63
2022-11-12T11:07:01.999Z,19.70
2022-11-12T11:09:32.785Z,19.74
2022-11-12T11:12:02.241Z,19.78
2022-11-12T11:14:33.582Z,19.90
2022-11-12T11:17:08.673Z,19.93
2022-11-12T11:19:43.362Z,19.93
2022-11-12T11:22:38.890Z,19.97
2022-11-12T11:25:21.912Z,20.03
2022-11-12T11:28:09.226Z,20.05
2022-11-12T11:30:42.831Z,20.14
2022-11-12T11:33:27.689Z,20.19
2022-11-12T11:36:09.930Z,20.23
2022-11-12T11:38:53.423Z,20.27
2022-11-12T11:41:50.790Z,20.36
2022-11-12T11:44:28.555Z,20.39
2022-11-12T11:47:12.637Z,20.48
2022-11-12T11:50:08.055Z,20.52
2022-11-12T11:52:47.183Z,20.64
2022-11-12T11:55:29.796Z,20.79
2022-11-12T11:58:11.031Z,20.95
2022-11-12T12:00:48.909Z,21.05
2022-11-12T12:03:21.913Z,21.13
2022-11-12T12:06:12.368Z,21.14
2022-11-12T12:09:22.108Z,21.22
2022-11-12T12:12:03.806Z,21.29
2022-11-12T12:14:51.152Z,21.33
2022-11-12T12:17:32.135Z,21.41
2022-11-12T12:20:07.638Z,21.53
2022-11-12T12:22:40.214Z,21.65
2022-11-12T12:25:15.972Z,21.84
2022-11-12T12:27:52.966Z,22.05
2022-11-12T12:30:25.129Z,22.19
2022-11-12T12:32:58.805Z,22.32
2022-11-12T12:35:32.333Z,22.48
2022-11-12T12:38:13.659Z,22.54
2022-11-12T12:40:51.612Z,22.60
2022-11-12T12:43:28.707Z,22.65
2022-11-12T12:45:59.178Z,22.67
2022-11-12T12:48:31.954Z,22.67
2022-11-12T12:51:00.532Z,22.56
2022-11-12T12:53:43.587Z,22.55
2022-11-12T12:56:48.902Z,22.51
2022-11-12T12:59:24.693Z,22.45
2022-11-12T13:02:00.610Z,22.46
2022-11-12T13:04:55.362Z,22.44
2022-11-12T13:07:43.764Z,22.39
2022-11-12T13:10:52.788Z,22.40
2022-11-12T13:13:34.230Z,22.39
2022-11-12T13:16:03.742Z,22.40
2022-11-12T13:19:02.575Z,22.38
2022-11-12T13:21:31.464Z,22.45
2022-11-12T13:24:11.216Z,22.43
2022-11-12T13:26:49.996Z,22.46
2022-11-12T13:29:24.605Z,22.56
2022-11-12T13:32:30.478Z,22.60
2022-11-12T13:35:40.810Z,22.64
2022-11-12T13:38:16.033Z,22.70
2022-11-12T13:40:47.543Z,22.72
2022-11-12T13:43:27.709Z,22.70
2022-11-12T13:46:01.101Z,22.72
2022-11-12T13:48:32.192Z,22.78
2022-11-12T13:51:15.206Z,22.87
2022-11-12T13:53:43.801Z,23.01
2022-11-12T13:56:12.388Z,23.13
2022-11-12T13:58:41.602Z,23.26
2022-11-12T14:01:12.971Z,23.36
2022-11-12T14:04:03.006Z,23.42
2022-11-12T14:06:37.782Z,23.45
2022-11-12T14:13:18.039Z,23.60
2022-11-12T14:16:16.109Z,23.79
2022-11-12T14:19:12.031Z,23.69
2022-11-12T14:24:36.717Z,23.85
2022-11-12T14:27:51.975Z,24.42
2022-11-12T14:30:32.751Z,25.07
2022-11-12T14:33:10.164Z,25.80
2022-11-12T14:35:55.097Z,26.35
2022-11-12T14:38:33.422Z,26.78
2022-11-12T14:41:20.424Z,27.16
2022-11-12T14:44:10.952Z,27.54
2022-11-12T14:46:47.027Z,27.93
2022-11-12T14:49:23.355Z,28.23
2022-11-12T14:52:09.988Z,28.11
2022-11-12T14:54:44.407Z,27.77
2022-11-12T14:57:21.896Z,27.41
2022-11-12T14:59:50.822Z,27.00
2022-11-12T15:02:46.919Z,26.50
2022-11-12T15:05:17.092Z,26.06
2022-11-12T15:07:58.185Z,25.63
2022-11-12T15:10:36.884Z,25.34
2022-11-12T15:13:08.701Z,25.12
2022-11-12T15:15:39.936Z,24.87
2022-11-12T15:18:15.764Z,24.61
2022-11-12T15:20:44.028Z,24.43
2022-11-12T15:23:19.422Z,24.27
2022-11-12T15:25:59.262Z,24.05
2022-11-12T15:28:28.180Z,23.84
2022-11-12T15:31:04.007Z,23.72
2022-11-12T15:33:32.382Z,23.64
2022-11-12T15:36:02.493Z,23.48
2022-11-12T15:38:38.058Z,23.31
2022-11-12T15:41:08.368Z,23.24
2022-11-12T15:43:42.584Z,23.10
2022-11-12T15:46:15.290Z,22.97
2022-11-12T15:48:43.704Z,22.81
2022-11-12T15:51:12.578Z,22.63
2022-11-12T15:53:40.920Z,22.42
2022-11-12T15:56:17.477Z,22.28
2022-11-12T15:58:45.819Z,22.11
2022-11-12T16:01:14.305Z,21.93
2022-11-12T16:03:42.473Z,21.73
2022-11-12T16:06:13.864Z,21.58
2022-11-12T16:08:43.732Z,21.49
2022-11-12T16:11:28.587Z,21.33
2022-11-12T16:13:56.907Z,21.18
2022-11-12T16:16:25.218Z,21.05
2022-11-12T16:19:11.001Z,20.94
2022-11-12T16:21:39.869Z,20.79
2022-11-12T16:30:26.538Z,20.38
2022-11-12T16:32:55.092Z,20.22
2022-11-12T16:55:29.085Z,19.48
2022-11-12T16:58:35.719Z,19.44
2022-11-12T17:01:25.547Z,19.36
2022-11-12T17:04:07.259Z,19.30
2022-11-12T17:06:40.958Z,19.32
2022-11-12T17:09:15.841Z,19.30
2022-11-12T17:12:36.425Z,19.26
2022-11-12T17:15:16.606Z,19.20
2022-11-12T17:17:45.582Z,19.19
2022-11-12T18:02:06.438Z,18.95
2022-11-12T18:07:49.124Z,18.90
2022-11-12T18:10:19.646Z,18.88
2022-11-12T18:12:48.333Z,18.85
2022-11-12T18:15:17.105Z,18.84
2022-11-12T18:17:55.336Z,18.77
2022-11-12T18:20:23.805Z,18.75
2022-11-12T18:22:52.364Z,18.71
2022-11-12T18:25:20.593Z,18.69
2022-11-12T18:27:54.806Z,18.67
2022-11-12T18:30:23.777Z,18.62
2022-11-12T18:32:53.442Z,18.62
2022-11-12T18:35:25.839Z,18.58
2022-11-12T19:34:39.230Z,18.26
2022-11-12T19:39:44.441Z,18.25
2022-11-12T19:42:13.763Z,18.25
2022-11-12T19:50:31.237Z,18.21
2022-11-12T19:53:04.270Z,18.24
2022-11-12T19:55:51.977Z,18.21
2022-11-12T19:58:21.319Z,18.23
2022-11-12T20:01:04.141Z,18.23
2022-11-12T20:15:05.599Z,18.19
2022-11-12T20:17:34.626Z,18.19
2022-11-12T21:40:40.326Z,17.90
2022-11-12T21:43:09.180Z,17.95
2022-11-12T21:49:07.696Z,17.95
2022-11-12T21:51:54.215Z,17.93
2022-11-12T22:06:31.833Z,17.94
2022-11-12T22:09:00.248Z,17.98
2022-11-12T22:11:35.611Z,17.99
2022-11-12T22:14:04.390Z,18.00
2022-11-12T22:16:32.642Z,18.04
2022-11-12T22:19:02.959Z,18.05
2022-11-12T22:21:39.714Z,18.04
2022-11-12T22:24:09.685Z,18.07
2022-11-12T22:26:53.104Z,18.06
2022-11-12T22:29:21.725Z,18.07
2022-11-12T22:47:48.621Z,17.98
2022-11-12T22:50:22.492Z,17.94
2022-11-12T22:56:03.535Z,17.95
2022-11-12T23:01:10.789Z,17.94
2022-11-12T23:06:19.079Z,17.93
2022-11-12T23:08:51.589Z,17.95
2022-11-12T23:19:30.509Z,17.90
2022-11-12T23:21:58.713Z,17.93
2022-11-12T23:24:27.359Z,17.92
2022-11-12T23:27:07.312Z,17.87
2022-11-12T23:29:41.835Z,17.90
2022-11-12T23:32:16.422Z,17.92
2022-11-12T23:41:06.690Z,17.88
